Air Resources Laboratory banner image
Air Resources Laboratory web site National Oceanic and Atmospheric Administration (NOAA)

id metar


KBOI 170853Z 16004KT 10SM CLR 23/02 A2997 RMK AO2 SLP113 T02280017 53009 $=
KBYI 170853Z AUTO 00000KT 10SM CLR 13/07 A3008 RMK AO2 SLP138 T01330072 52007=
KCOE 170856Z AUTO 09003KT 10SM CLR 18/11 A3006 RMK AO2 SLP173 6//// T01780106
 53010 PNO $=
KEUL 170856Z AUTO 26003KT 10SM CLR 18/13 A2996 RMK AO2 SLP119 T01830133 51011=
KGNG 170855Z AUTO 13009KT 10SM CLR 19/07 A3007 RMK AO2=
KIDA 170853Z AUTO 04005KT 10SM CLR 16/09 A3016 RMK AO2 SLP160 T01560089 51011=
KJER 170853Z AUTO 11007KT 10SM CLR 18/05 A3007 RMK AO2 SLP134 T01830050 52008=
KLLJ 170855Z AUTO 00000KT 10SM CLR 16/01 A3021 RMK AO2 SLP158 T01610011 51015=
KLWS 170856Z AUTO 00000KT 10SM CLR 23/03 A2997 RMK AO2 SLP135 T02280028 51011=
KMLP 170853Z AUTO 00000KT 10SM CLR 19/M05 A3028 RMK AO2 SLP140 T01891050 53004=
KMUO 170858Z AUTO 10005KT 10SM CLR 19/04 A2996 RMK AO2 SLP115 T01870041 52007 $=
KMYL 170851Z AUTO 00000KT 10SM BKN120 15/04 A3018 RMK AO2 SLP163 T01500039
 51008=
KP69 170852Z AUTO 00000KT 16/12 A3006 RMK AO1 SLP152 T01560122 51019=
KPIH 170853Z AUTO 09007KT 10SM CLR 17/06 A3012 RMK AO2 SLP141 T01720056 51009=
KRXE 170853Z AUTO 03004KT 10SM CLR 16/09 A3017 RMK AO2 SLP163 T01560089 51008=
KSMN 170856Z AUTO 17003KT 7SM CLR 12/07 A3017 RMK AO2 SLP903 6//// T01220067
 51017 PNO $=
KSNT 170851Z AUTO 00000KT 07/01 A3033 RMK AO1 SLP167 T00720006 51012=
KSUN 170855Z AUTO 31010KT 10SM CLR 17/02 A3021 RMK AO2=
KTWF 170853Z AUTO 19008KT 10SM CLR 19/01 A3007 RMK AO2 SLP115 T01940006 53006=